Teddy Meyer — WDF9635 — position and weather

sailwx.info

Track history (hours):
 
Tides and Currents Weather Stations Pressure Air Temp Water Temp Dewpoint Dewpoint Depression Visibility Wind Speed Wind Dir Waves Ship Positions

Teddy Meyer

Owner: LeBeouf Bros. Towing, LLC, Houma, LA. More information available from US FCC via Universal Licensing System and Coast Guard Vessel Documentation Center.

Last reported at 2015-Jul-30 10:33 UTC. Time now 2015-Aug-04 07:24 UTC.
Position N 29°43' W 094°07'.

; draft 3 m.

MMSI: 367507220.

Date/timePositionNaut miles runAvg speedWind from/ knotsBaromVisibWave heightAir tempDewpointWater temp
2015-Jul-30 10:33N 29°43' W 094°07'6 6.1
2015-Jul-30 09:33N 29°40' W 094°13'7 6.8
2015-Jul-30 08:33N 29°37' W 094°20'6 5.9
2015-Jul-30 07:33N 29°34' W 094°25'27 1.5
2015-Jul-29 13:20N 29°23' W 094°53'0 0.0
2015-Jul-29 12:30N 29°23' W 094°53'0 0.0
2015-Jul-28 01:09N 29°23' W 094°53'4 2.5
2015-Jul-27 23:32N 29°21' W 094°49'0 0.0
2015-Jul-27 22:33N 29°21' W 094°49'0 0.0
2015-Jul-27 21:24N 29°21' W 094°49'0 0.0
2015-Jul-27 20:33N 29°21' W 094°49'0 0.0
2015-Jul-27 19:33N 29°21' W 094°49'0 0.0
2015-Jul-27 18:33N 29°21' W 094°49'0 0.0
2015-Jul-27 17:33N 29°21' W 094°49'0 0.0
2015-Jul-27 16:33N 29°21' W 094°49'0 0.0
2015-Jul-27 15:33N 29°21' W 094°49'0 0.0
2015-Jul-27 14:33N 29°21' W 094°49'0 0.0
2015-Jul-27 13:32N 29°21' W 094°49'  
Track history (hours):
 
Tides and Currents Weather Stations Pressure Air Temp Water Temp Dewpoint Dewpoint Depression Visibility Wind Speed Wind Dir Waves Ship Positions

Teddy Meyer

Owner: LeBeouf Bros. Towing, LLC, Houma, LA. More information available from US FCC via Universal Licensing System and Coast Guard Vessel Documentation Center.

Last reported at 2015-Jul-30 10:33 UTC. Time now 2015-Aug-04 07:24 UTC.
Position N 29°43' W 094°07'.

; draft 3 m.

MMSI: 367507220.

Date/timePositionNaut miles runAvg speedWind from/ knotsBaromVisibWave heightAir tempDewpointWater temp
2015-Jul-30 10:33N 29°43' W 094°07'6 6.1
2015-Jul-30 09:33N 29°40' W 094°13'7 6.8
2015-Jul-30 08:33N 29°37' W 094°20'6 5.9
2015-Jul-30 07:33N 29°34' W 094°25'27 1.5
2015-Jul-29 13:20N 29°23' W 094°53'0 0.0
2015-Jul-29 12:30N 29°23' W 094°53'0 0.0
2015-Jul-28 01:09N 29°23' W 094°53'4 2.5
2015-Jul-27 23:32N 29°21' W 094°49'0 0.0
2015-Jul-27 22:33N 29°21' W 094°49'0 0.0
2015-Jul-27 21:24N 29°21' W 094°49'0 0.0
2015-Jul-27 20:33N 29°21' W 094°49'0 0.0
2015-Jul-27 19:33N 29°21' W 094°49'0 0.0
2015-Jul-27 18:33N 29°21' W 094°49'0 0.0
2015-Jul-27 17:33N 29°21' W 094°49'0 0.0
2015-Jul-27 16:33N 29°21' W 094°49'0 0.0
2015-Jul-27 15:33N 29°21' W 094°49'0 0.0
2015-Jul-27 14:33N 29°21' W 094°49'0 0.0
2015-Jul-27 13:32N 29°21' W 094°49'  

Dump ship's entire track history